Time;durP1;ratioP1;P1;durP2;ratioP2;P2;SDS_P1;SDS_P2;PMS_P1;PMS_P2;Temp;Humidity;BMP_temperature;BMP_pressure;BME280_temperature;BME280_humidity;BME280_pressure;Samples;Min_cycle;Max_cycle;Signal;HPM_P1;HPM_P2
2024/01/22 00:00:38;;;;;;;36.50;4.63;;;10.90;99.90;;;;;;5049807;28;20065;-77
2024/01/22 00:03:04;;;;;;;24.85;3.83;;;10.90;99.90;;;;;;5046592;28;20067;-77
2024/01/22 00:05:29;;;;;;;31.17;5.43;;;11.00;99.90;;;;;;5053004;28;20070;-78
2024/01/22 00:07:55;;;;;;;26.45;4.60;;;11.00;99.90;;;;;;5066054;28;21637;-75
2024/01/22 00:10:21;;;;;;;30.90;4.03;;;10.90;99.90;;;;;;5050144;28;20044;-75
2024/01/22 00:12:46;;;;;;;26.85;3.33;;;11.00;99.90;;;;;;5064804;28;20029;-74
2024/01/22 00:15:12;;;;;;;18.05;3.10;;;11.00;99.90;;;;;;5034385;28;20626;-74
2024/01/22 00:17:37;;;;;;;36.20;5.07;;;11.00;99.90;;;;;;5061033;28;20050;-74
2024/01/22 00:20:03;;;;;;;35.85;4.65;;;10.90;99.90;;;;;;5058733;28;20115;-74
2024/01/22 00:22:29;;;;;;;15.20;5.00;;;11.00;99.90;;;;;;5056865;28;20615;-75
2024/01/22 00:24:54;;;;;;;25.15;2.70;;;11.00;99.90;;;;;;5064761;28;20036;-75
2024/01/22 00:27:20;;;;;;;31.65;3.60;;;11.00;99.90;;;;;;5050756;28;20036;-75
2024/01/22 00:29:46;;;;;;;21.80;3.70;;;10.90;99.90;;;;;;5056200;28;20406;-74
2024/01/22 00:32:12;;;;;;;30.67;4.47;;;10.90;99.90;;;;;;5054212;28;20038;-74
2024/01/22 00:34:37;;;;;;;29.80;4.13;;;10.90;99.90;;;;;;5062767;28;20028;-74
2024/01/22 00:37:03;;;;;;;27.08;5.55;;;10.90;99.90;;;;;;5047898;28;20043;-75
2024/01/22 00:39:29;;;;;;;38.78;5.43;;;10.90;99.90;;;;;;5065656;28;20043;-75
2024/01/22 00:41:56;;;;;;;34.72;4.55;;;10.90;99.90;;;;;;5051668;28;20043;-75
2024/01/22 00:44:22;;;;;;;21.67;4.13;;;10.80;99.90;;;;;;5060454;28;21249;-75
2024/01/22 00:46:48;;;;;;;24.17;4.82;;;10.80;99.90;;;;;;5047472;28;20056;-75
2024/01/22 00:49:14;;;;;;;26.58;5.68;;;10.80;99.90;;;;;;5062907;28;20206;-74
2024/01/22 00:51:39;;;;;;;26.60;4.07;;;10.80;99.90;;;;;;5048411;28;20036;-74
2024/01/22 00:54:05;;;;;;;25.17;4.38;;;10.90;99.90;;;;;;5063511;28;20028;-72
2024/01/22 00:56:31;;;;;;;15.77;3.25;;;10.80;99.90;;;;;;5044671;28;20451;-74
2024/01/22 00:58:56;;;;;;;15.38;2.63;;;10.80;99.90;;;;;;5066670;28;20090;-74
2024/01/22 01:01:22;;;;;;;18.95;3.50;;;10.80;99.90;;;;;;5058346;28;20119;-73
2024/01/22 01:03:48;;;;;;;24.17;3.35;;;10.90;99.90;;;;;;5056492;28;20109;-74
2024/01/22 01:06:14;;;;;;;27.52;3.08;;;10.90;99.90;;;;;;5065858;28;20029;-74
2024/01/22 01:08:40;;;;;;;22.77;3.10;;;10.90;99.90;;;;;;5051070;28;20032;-74
2024/01/22 01:11:05;;;;;;;19.48;2.28;;;10.90;99.90;;;;;;5060450;28;21203;-74
2024/01/22 01:13:31;;;;;;;32.20;3.33;;;10.90;99.90;;;;;;5050535;28;20089;-74
2024/01/22 01:15:57;;;;;;;29.40;4.13;;;10.80;99.90;;;;;;5059921;28;20041;-75
2024/01/22 01:18:22;;;;;;;12.80;2.65;;;10.80;99.90;;;;;;5052098;28;20032;-75
2024/01/22 01:20:48;;;;;;;18.27;2.13;;;10.80;99.90;;;;;;5064885;28;20816;-74
2024/01/22 01:23:14;;;;;;;22.80;3.70;;;10.90;99.90;;;;;;5047113;28;20659;-74
2024/01/22 01:25:39;;;;;;;21.70;4.10;;;10.90;99.90;;;;;;5062513;28;20016;-75
2024/01/22 01:28:05;;;;;;;22.63;2.40;;;10.80;99.90;;;;;;5049906;28;20636;-74
2024/01/22 01:30:31;;;;;;;17.40;4.70;;;10.90;99.90;;;;;;5059714;28;20133;-74
2024/01/22 01:32:59;;;;;;;28.80;3.00;;;11.00;99.90;;;;;;5052773;28;20065;-73
2024/01/22 01:35:30;;;;;;;20.15;3.13;;;;;;;;;;5061323;28;20040;-74
2024/01/22 01:37:55;;;;;;;22.55;2.90;;;11.00;99.90;;;;;;5047016;28;21044;-73
2024/01/22 01:40:21;;;;;;;28.58;3.78;;;11.00;99.90;;;;;;5062833;28;20029;-73
2024/01/22 01:42:46;;;;;;;5.07;1.52;;;11.00;99.90;;;;;;5050211;28;20123;-72
2024/01/22 01:45:14;;;;;;;14.32;2.22;;;11.00;99.90;;;;;;5058534;28;20036;-73
2024/01/22 01:47:43;;;;;;;29.38;3.58;;;11.00;99.90;;;;;;5061088;28;20503;-74
2024/01/22 01:50:10;;;;;;;22.15;2.22;;;11.10;99.90;;;;;;5046179;28;20028;-74
2024/01/22 01:52:36;;;;;;;19.83;2.15;;;11.10;99.90;;;;;;5067885;28;20028;-74
2024/01/22 01:55:02;;;;;;;31.90;2.80;;;11.00;99.90;;;;;;5052956;28;20024;-74
2024/01/22 01:57:29;;;;;;;24.00;2.97;;;11.10;99.90;;;;;;5060342;28;20034;-73
2024/01/22 01:59:56;;;;;;;16.08;3.55;;;11.00;99.90;;;;;;5055488;28;20032;-73
2024/01/22 02:02:22;;;;;;;10.73;2.47;;;11.00;99.90;;;;;;5064364;28;20028;-74
2024/01/22 02:04:48;;;;;;;19.67;3.35;;;11.00;99.90;;;;;;5049353;28;20035;-73
2024/01/22 02:07:13;;;;;;;24.05;4.18;;;11.00;99.90;;;;;;5065108;28;20036;-74
2024/01/22 02:09:54;;;;;;;27.42;5.25;;;11.00;99.90;;;;;;5052746;28;20036;-73
2024/01/22 02:12:20;;;;;;;22.95;3.95;;;11.00;99.90;;;;;;5064704;28;20036;-74
2024/01/22 02:14:47;;;;;;;16.20;2.95;;;10.90;99.90;;;;;;5052907;28;20038;-73
2024/01/22 02:17:13;;;;;;;18.42;3.70;;;10.80;99.90;;;;;;5063348;28;20058;-72
2024/01/22 02:19:39;;;;;;;29.75;4.50;;;10.80;99.90;;;;;;5051901;28;21785;-72
2024/01/22 02:22:05;;;;;;;49.20;5.68;;;10.70;99.90;;;;;;5063235;28;20024;-73
2024/01/22 02:24:31;;;;;;;29.98;4.03;;;10.70;99.90;;;;;;5049643;28;20038;-73
2024/01/22 02:26:57;;;;;;;20.80;5.10;;;10.70;99.90;;;;;;5068689;28;20376;-73
2024/01/22 02:29:23;;;;;;;30.55;6.13;;;10.70;99.90;;;;;;5052300;28;20085;-73
2024/01/22 02:31:49;;;;;;;31.27;5.18;;;10.70;99.90;;;;;;5063408;28;20040;-73
2024/01/22 02:34:16;;;;;;;29.60;5.43;;;10.70;99.90;;;;;;5067450;28;20032;-73
2024/01/22 02:36:42;;;;;;;37.40;5.22;;;10.70;99.90;;;;;;5049227;28;20081;-73
2024/01/22 02:39:07;;;;;;;36.65;5.93;;;10.70;99.90;;;;;;5063618;28;20032;-72
2024/01/22 02:41:33;;;;;;;32.20;3.30;;;10.70;99.90;;;;;;5054911;28;20109;-72
2024/01/22 02:43:59;;;;;;;16.70;3.75;;;10.60;99.90;;;;;;5060234;28;20151;-72
2024/01/22 02:46:25;;;;;;;29.58;3.85;;;10.70;99.90;;;;;;5048691;28;20054;-73
2024/01/22 02:48:51;;;;;;;32.95;4.18;;;10.70;99.90;;;;;;5061768;28;20042;-72
2024/01/22 02:51:17;;;;;;;33.70;4.25;;;10.70;99.90;;;;;;5046976;28;20884;-72
2024/01/22 02:53:43;;;;;;;41.85;5.18;;;10.70;99.90;;;;;;5064683;28;20047;-71
2024/01/22 02:56:08;;;;;;;32.13;5.00;;;10.70;99.90;;;;;;5052414;28;20040;-72
2024/01/22 02:58:36;;;;;;;27.40;4.22;;;10.60;99.90;;;;;;5065455;28;20625;-71
2024/01/22 03:01:02;;;;;;;32.90;5.35;;;10.60;99.90;;;;;;5055139;28;20028;-72
2024/01/22 03:03:27;;;;;;;36.00;4.57;;;10.70;99.90;;;;;;5060706;28;20035;-74
2024/01/22 03:05:53;;;;;;;13.75;3.03;;;10.60;99.90;;;;;;5049459;28;20035;-72
2024/01/22 03:08:19;;;;;;;33.53;5.18;;;10.60;99.90;;;;;;5058998;28;20039;-74
2024/01/22 03:10:45;;;;;;;17.25;3.28;;;10.60;99.90;;;;;;5049195;28;20321;-73
2024/01/22 03:13:11;;;;;;;16.38;2.85;;;10.60;99.90;;;;;;5063211;28;20020;-72
2024/01/22 03:15:37;;;;;;;27.63;5.13;;;10.60;99.90;;;;;;5063636;28;20103;-72
2024/01/22 03:18:03;;;;;;;39.20;4.30;;;10.60;99.90;;;;;;5049486;28;20106;-72
2024/01/22 03:20:29;;;;;;;11.48;3.50;;;10.60;99.90;;;;;;5067971;28;20377;-73
2024/01/22 03:22:54;;;;;;;38.85;2.70;;;10.70;99.90;;;;;;5051118;28;20024;-72
2024/01/22 03:25:20;;;;;;;27.20;3.72;;;10.60;99.90;;;;;;5061764;28;20031;-72
2024/01/22 03:27:45;;;;;;;32.05;3.85;;;10.60;99.90;;;;;;5057325;28;20038;-72
2024/01/22 03:30:12;;;;;;;35.13;4.47;;;10.50;99.90;;;;;;5065490;28;20377;-72
2024/01/22 03:32:37;;;;;;;32.70;4.93;;;10.50;99.90;;;;;;5051541;28;21242;-72
2024/01/22 03:35:03;;;;;;;15.65;3.67;;;10.40;99.90;;;;;;5070266;28;20245;-72
2024/01/22 03:37:29;;;;;;;26.48;4.10;;;10.30;99.90;;;;;;5047584;28;20537;-73
2024/01/22 03:39:55;;;;;;;25.88;5.80;;;;;;;;;;5068828;28;20427;-72
2024/01/22 03:42:20;;;;;;;41.28;4.45;;;10.20;99.90;;;;;;5054707;28;20047;-72
2024/01/22 03:44:46;;;;;;;22.48;3.65;;;10.20;99.90;;;;;;5064282;28;20065;-72
2024/01/22 03:47:12;;;;;;;33.88;3.72;;;10.30;99.90;;;;;;5055696;28;20718;-72
2024/01/22 03:49:37;;;;;;;27.00;3.80;;;10.50;99.90;;;;;;5064436;28;21524;-72
2024/01/22 03:52:03;;;;;;;23.77;4.68;;;10.60;99.90;;;;;;5050300;28;20445;-71
2024/01/22 03:54:29;;;;;;;42.83;5.78;;;10.70;99.90;;;;;;5061193;28;20038;-72
2024/01/22 03:56:55;;;;;;;32.47;5.50;;;10.70;99.90;;;;;;5058710;28;20035;-72
2024/01/22 03:59:20;;;;;;;52.53;6.78;;;10.70;99.90;;;;;;5053623;28;20400;-72
2024/01/22 04:01:46;;;;;;;46.30;6.00;;;10.60;99.90;;;;;;5060851;28;20028;-73
2024/01/22 04:04:12;;;;;;;31.45;4.25;;;10.60;99.90;;;;;;5047099;28;20751;-72
2024/01/22 04:06:37;;;;;;;23.80;5.95;;;10.60;99.90;;;;;;5050781;28;20067;-73
2024/01/22 04:09:03;;;;;;;31.95;5.50;;;10.60;99.90;;;;;;5053057;28;20107;-73
2024/01/22 04:11:29;;;;;;;34.00;4.85;;;10.60;99.90;;;;;;5061934;28;20037;-72
2024/01/22 04:13:54;;;;;;;28.08;4.97;;;10.70;99.90;;;;;;5057224;28;20120;-72
2024/01/22 04:16:20;;;;;;;37.47;5.25;;;10.70;99.90;;;;;;5059020;28;20028;-72
2024/01/22 04:18:46;;;;;;;19.25;3.90;;;10.70;99.90;;;;;;5046178;28;20118;-71
2024/01/22 04:21:12;;;;;;;48.80;7.28;;;10.80;99.90;;;;;;5067072;28;20036;-72
2024/01/22 04:23:37;;;;;;;41.67;5.20;;;10.80;99.90;;;;;;5046360;28;20298;-72
2024/01/22 04:26:05;;;;;;;50.58;6.57;;;10.90;99.90;;;;;;5062777;28;20085;-72
2024/01/22 04:28:30;;;;;;;19.35;6.30;;;10.90;99.90;;;;;;5055346;28;21236;-72
2024/01/22 04:30:56;;;;;;;44.95;6.32;;;10.80;99.90;;;;;;5061753;28;20170;-71
2024/01/22 04:33:22;;;;;;;35.78;6.38;;;10.80;99.90;;;;;;5057284;28;20059;-72
2024/01/22 04:35:49;;;;;;;28.05;3.92;;;10.90;99.90;;;;;;5060830;28;20415;-72
2024/01/22 04:38:15;;;;;;;26.40;5.20;;;10.70;99.90;;;;;;5061895;28;20625;-73
2024/01/22 04:40:41;;;;;;;31.85;5.65;;;10.80;99.90;;;;;;5051767;28;20021;-72
2024/01/22 04:43:07;;;;;;;22.25;5.30;;;10.90;99.90;;;;;;5064281;28;20054;-73
2024/01/22 04:45:32;;;;;;;34.42;5.22;;;10.90;99.90;;;;;;5053172;28;20032;-71
2024/01/22 04:47:59;;;;;;;43.15;5.78;;;10.70;99.90;;;;;;5063398;28;20040;-72
2024/01/22 04:50:24;;;;;;;23.58;4.28;;;10.80;99.90;;;;;;5050350;28;20032;-72
2024/01/22 04:52:50;;;;;;;51.75;6.50;;;10.70;99.90;;;;;;5062821;28;20029;-72
2024/01/22 04:55:16;;;;;;;23.85;3.47;;;10.70;99.90;;;;;;5052305;28;20077;-72
2024/01/22 04:57:41;;;;;;;38.78;5.68;;;10.70;99.90;;;;;;5056999;28;20060;-71
2024/01/22 05:00:08;;;;;;;18.70;5.82;;;10.70;99.90;;;;;;5051793;28;20388;-72
2024/01/22 05:02:37;;;;;;;45.38;7.28;;;10.80;99.90;;;;;;5063436;28;20470;-72
2024/01/22 05:05:03;;;;;;;;;;;10.90;99.90;;;;;;5035919;28;20069;-73
2024/01/22 05:07:28;;;;;;;18.30;3.78;;;10.90;99.90;;;;;;5063306;28;20559;-72
2024/01/22 05:09:58;;;;;;;31.33;5.43;;;10.90;99.90;;;;;;5048117;28;20051;-73
2024/01/22 05:12:24;;;;;;;40.15;7.93;;;11.00;99.90;;;;;;5062456;28;20032;-72
2024/01/22 05:14:51;;;;;;;54.58;5.07;;;11.00;99.90;;;;;;5040207;28;20044;-71
2024/01/22 05:17:16;;;;;;;34.00;5.53;;;10.90;99.90;;;;;;5062898;28;20561;-73
2024/01/22 05:19:42;;;;;;;37.63;7.50;;;;;;;;;;5063878;28;21163;-72
2024/01/22 05:22:09;;;;;;;27.55;6.00;;;10.80;99.90;;;;;;5042396;28;20335;-72
2024/01/22 05:24:34;;;;;;;27.10;5.28;;;10.70;99.90;;;;;;5054247;28;20035;-72
2024/01/22 05:27:02;;;;;;;59.78;5.85;;;10.70;99.90;;;;;;5051868;28;20036;-72
2024/01/22 05:29:28;;;;;;;32.70;5.40;;;10.70;99.90;;;;;;5065643;28;20036;-73
2024/01/22 05:31:53;;;;;;;34.58;5.85;;;10.80;99.90;;;;;;5047870;28;20114;-72
2024/01/22 05:34:19;;;;;;;38.40;5.07;;;10.80;99.90;;;;;;5065348;28;20047;-73
2024/01/22 05:36:45;;;;;;;42.95;6.72;;;10.80;99.90;;;;;;5047321;28;20017;-71
2024/01/22 05:39:12;;;;;;;19.08;4.43;;;10.80;99.90;;;;;;5056900;28;20037;-71
2024/01/22 05:41:38;;;;;;;49.20;5.20;;;10.70;99.90;;;;;;5050047;28;20032;-72
2024/01/22 05:44:04;;;;;;;33.85;5.65;;;10.70;99.90;;;;;;5059297;28;20028;-72
2024/01/22 05:46:30;;;;;;;24.10;4.32;;;10.60;99.90;;;;;;5053144;28;20043;-72
2024/01/22 05:48:55;;;;;;;20.50;6.55;;;10.50;99.90;;;;;;5068320;28;20043;-73
2024/01/22 05:51:21;;;;;;;42.53;6.07;;;10.50;99.90;;;;;;5045764;28;20032;-72
2024/01/22 05:53:48;;;;;;;30.42;4.22;;;10.40;99.90;;;;;;5062866;28;20083;-72
2024/01/22 05:56:22;;;;;;;32.78;5.00;;;10.40;99.90;;;;;;5046798;28;20086;-72
2024/01/22 05:58:49;;;;;;;43.05;4.95;;;10.40;99.90;;;;;;5063412;28;20043;-72
2024/01/22 06:01:19;;;;;;;19.88;4.50;;;10.40;99.90;;;;;;5063403;28;20021;-71
2024/01/22 06:03:44;;;;;;;31.65;5.40;;;10.40;99.90;;;;;;5061903;28;20032;-73
2024/01/22 06:06:10;;;;;;;23.90;4.07;;;10.30;99.90;;;;;;5060185;28;20047;-72
2024/01/22 06:08:36;;;;;;;29.80;4.32;;;10.30;99.90;;;;;;5053370;28;20538;-73
2024/01/22 06:11:04;;;;;;;34.92;4.65;;;10.20;99.90;;;;;;5058992;28;20064;-70
2024/01/22 06:13:31;;;;;;;44.30;4.43;;;10.20;99.90;;;;;;5052289;28;20045;-72
2024/01/22 06:15:58;;;;;;;32.58;5.00;;;10.10;99.90;;;;;;5062270;28;20028;-72
2024/01/22 06:18:24;;;;;;;35.00;5.13;;;10.00;99.90;;;;;;5041584;28;20089;-72
2024/01/22 06:20:49;;;;;;;34.55;4.30;;;9.90;99.90;;;;;;5051359;28;20034;-72
2024/01/22 06:23:15;;;;;;;30.13;5.35;;;9.80;99.90;;;;;;5048201;28;20055;-71
2024/01/22 06:25:42;;;;;;;19.90;4.28;;;9.80;99.90;;;;;;5056850;28;20491;-72
2024/01/22 06:28:08;;;;;;;37.35;5.05;;;9.70;99.90;;;;;;5047006;28;20036;-72
2024/01/22 06:30:34;;;;;;;27.88;5.38;;;9.70;99.90;;;;;;5052955;28;20039;-72
2024/01/22 06:32:59;;;;;;;23.83;3.88;;;9.70;99.90;;;;;;5046618;28;20032;-73
2024/01/22 06:35:25;;;;;;;27.00;5.18;;;9.60;99.90;;;;;;5063118;28;20111;-73
2024/01/22 06:37:52;;;;;;;24.83;5.15;;;9.50;99.90;;;;;;5044478;28;20078;-73
2024/01/22 06:40:17;;;;;;;37.30;5.63;;;9.40;99.90;;;;;;5061528;28;20036;-71
2024/01/22 06:42:43;;;;;;;12.35;2.65;;;9.40;99.90;;;;;;5053468;28;20537;-73
2024/01/22 06:45:09;;;;;;;26.63;4.57;;;9.40;99.90;;;;;;5058718;28;20029;-73
2024/01/22 06:47:35;;;;;;;32.13;4.38;;;9.50;99.90;;;;;;5066148;28;20040;-72
2024/01/22 06:50:00;;;;;;;27.13;3.17;;;9.40;99.90;;;;;;5060022;28;20036;-73
2024/01/22 06:52:26;;;;;;;37.22;5.80;;;9.50;99.90;;;;;;5061407;28;20028;-75
2024/01/22 06:54:51;;;;;;;14.88;4.55;;;9.50;99.90;;;;;;5052093;28;20056;-72
2024/01/22 06:57:17;;;;;;;28.67;5.07;;;9.60;99.90;;;;;;5068797;28;20035;-73
2024/01/22 06:59:43;;;;;;;20.65;3.95;;;9.60;99.90;;;;;;5052999;28;20036;-72
2024/01/22 07:02:08;;;;;;;22.40;3.65;;;9.70;99.90;;;;;;5063897;28;20082;-72
2024/01/22 07:04:35;;;;;;;13.23;2.33;;;9.70;99.90;;;;;;5041800;28;20036;-71
2024/01/22 07:07:01;;;;;;;19.55;3.53;;;9.60;99.90;;;;;;5067520;28;20027;-72
2024/01/22 07:09:26;;;;;;;12.80;2.95;;;9.70;99.90;;;;;;5053714;28;20040;-72
2024/01/22 07:11:52;;;;;;;15.95;3.08;;;9.70;99.90;;;;;;5050881;28;20033;-73
2024/01/22 07:14:17;;;;;;;20.00;3.40;;;9.70;99.90;;;;;;5054737;28;20425;-72
2024/01/22 07:16:43;;;;;;;32.38;4.22;;;9.80;99.90;;;;;;5067504;28;20481;-72
2024/01/22 07:19:09;;;;;;;23.65;2.72;;;9.70;99.90;;;;;;5051994;28;20101;-72
2024/01/22 07:21:34;;;;;;;14.88;2.03;;;9.70;99.90;;;;;;5068176;28;20029;-73
2024/01/22 07:24:00;;;;;;;9.43;1.80;;;9.60;99.90;;;;;;5061444;28;20425;-71
2024/01/22 07:26:26;;;;;;;7.85;1.95;;;9.60;99.90;;;;;;5059372;28;20517;-72
2024/01/22 07:28:51;;;;;;;6.20;1.48;;;9.60;99.90;;;;;;5067966;28;20029;-71
2024/01/22 07:31:17;;;;;;;8.15;0.93;;;9.60;99.90;;;;;;5043128;28;20123;-72
2024/01/22 07:33:43;;;;;;;8.48;1.50;;;9.50;99.90;;;;;;5064723;28;20042;-71
2024/01/22 07:36:08;;;;;;;6.45;0.95;;;9.50;99.90;;;;;;5046048;28;20108;-72
2024/01/22 07:38:34;;;;;;;12.13;1.45;;;9.50;99.90;;;;;;5056996;28;20032;-71
2024/01/22 07:41:00;;;;;;;4.57;1.02;;;9.50;99.90;;;;;;5048617;28;20510;-71
2024/01/22 07:43:26;;;;;;;9.98;1.00;;;9.60;99.90;;;;;;5060080;28;20099;-73
2024/01/22 07:45:52;;;;;;;6.07;1.67;;;9.50;99.90;;;;;;5043192;28;20740;-72
2024/01/22 07:48:17;;;;;;;6.13;0.90;;;9.40;99.90;;;;;;5062728;28;20051;-72
2024/01/22 07:50:43;;;;;;;4.07;1.00;;;9.40;99.90;;;;;;5052581;28;20301;-71
2024/01/22 07:53:09;;;;;;;2.03;1.58;;;9.40;99.90;;;;;;5056031;28;20067;-72
2024/01/22 07:55:34;;;;;;;9.65;2.03;;;9.30;99.90;;;;;;5044186;28;20025;-72
2024/01/22 07:58:00;;;;;;;17.75;3.47;;;9.30;99.90;;;;;;5059942;28;20056;-72
2024/01/22 08:00:26;;;;;;;9.95;2.55;;;9.20;99.90;;;;;;5041879;28;20085;-72
2024/01/22 08:02:52;;;;;;;13.18;1.75;;;9.20;99.90;;;;;;5054553;28;20056;-72
2024/01/22 08:05:17;;;;;;;14.73;3.05;;;9.10;99.90;;;;;;5047590;28;20043;-72
2024/01/22 08:07:43;;;;;;;17.77;2.72;;;9.10;99.90;;;;;;5042647;28;20032;-73
2024/01/22 08:10:10;;;;;;;20.13;3.15;;;9.00;99.90;;;;;;5048299;28;20173;-73
2024/01/22 08:12:35;;;;;;;11.10;2.92;;;9.00;99.90;;;;;;5034335;28;20550;-71
2024/01/22 08:15:01;;;;;;;13.05;2.42;;;9.00;99.90;;;;;;5048858;28;20044;-73
2024/01/22 08:17:27;;;;;;;16.27;2.35;;;8.90;99.90;;;;;;5033695;28;20035;-73
2024/01/22 08:19:52;;;;;;;26.30;3.53;;;8.80;99.90;;;;;;5045379;28;20044;-72
2024/01/22 08:22:18;;;;;;;8.15;2.42;;;8.90;99.90;;;;;;5036695;28;20060;-72
2024/01/22 08:24:44;;;;;;;15.82;2.63;;;8.80;99.90;;;;;;5046116;28;20055;-72
2024/01/22 08:27:10;;;;;;;16.95;1.77;;;8.80;99.90;;;;;;5039055;28;20411;-71
2024/01/22 08:29:35;;;;;;;11.75;2.15;;;8.80;99.90;;;;;;5046886;28;21546;-72
2024/01/22 08:32:01;;;;;;;18.92;2.83;;;8.80;99.90;;;;;;5043080;28;20360;-73
2024/01/22 08:34:26;;;;;;;7.18;1.45;;;8.80;99.90;;;;;;5058371;28;20432;-73
2024/01/22 08:36:52;;;;;;;5.32;1.15;;;8.90;99.90;;;;;;5044348;28;20557;-73
2024/01/22 08:39:18;;;;;;;15.07;2.35;;;8.90;99.90;;;;;;5050528;28;20044;-72
2024/01/22 08:41:44;;;;;;;14.05;2.65;;;8.90;99.90;;;;;;5048282;28;20028;-75
2024/01/22 08:44:10;;;;;;;11.77;1.88;;;9.00;99.90;;;;;;5053977;28;20403;-75
2024/01/22 08:46:36;;;;;;;2.90;1.60;;;9.10;99.90;;;;;;5048564;28;20058;-72
2024/01/22 08:49:02;;;;;;;11.45;2.25;;;9.20;99.90;;;;;;5044521;28;20661;-74
2024/01/22 08:51:28;;;;;;;22.52;2.05;;;9.20;99.90;;;;;;5050963;28;21183;-70
2024/01/22 08:53:54;;;;;;;19.45;2.53;;;9.20;99.90;;;;;;5035901;28;20064;-73
2024/01/22 08:56:19;;;;;;;9.23;2.20;;;9.20;99.90;;;;;;5047472;28;20036;-73
2024/01/22 08:58:45;;;;;;;16.55;2.55;;;9.30;99.90;;;;;;5035153;28;21971;-71
2024/01/22 09:01:10;;;;;;;15.70;3.58;;;9.20;99.90;;;;;;5043417;28;20448;-71
2024/01/22 09:03:36;;;;;;;7.57;1.60;;;9.20;99.90;;;;;;5030271;28;20804;-72
2024/01/22 09:06:05;;;;;;;25.83;2.53;;;9.20;99.90;;;;;;5038320;28;21163;-73
2024/01/22 09:08:30;;;;;;;17.10;2.15;;;9.20;99.90;;;;;;5034844;28;20196;-74
2024/01/22 09:10:57;;;;;;;12.32;1.90;;;9.30;99.90;;;;;;5026114;28;20083;-74
2024/01/22 09:13:23;;;;;;;26.50;4.63;;;9.30;99.90;;;;;;5035674;28;20059;-74
2024/01/22 09:15:48;;;;;;;10.05;2.17;;;9.30;99.90;;;;;;5052646;28;20124;-73
2024/01/22 09:18:15;;;;;;;19.35;2.63;;;9.30;99.90;;;;;;5033733;28;20574;-73
2024/01/22 09:20:41;;;;;;;25.08;2.97;;;9.40;99.90;;;;;;5048422;28;20039;-73
2024/01/22 09:23:06;;;;;;;10.32;2.47;;;9.40;99.90;;;;;;5042430;28;20025;-72
2024/01/22 09:25:33;;;;;;;24.77;1.95;;;9.40;99.90;;;;;;5050327;28;21072;-73
2024/01/22 09:27:59;;;;;;;8.82;1.60;;;9.50;99.90;;;;;;5048905;28;20743;-74
2024/01/22 09:30:24;;;;;;;10.68;1.48;;;9.50;99.90;;;;;;5025704;28;20029;-71
2024/01/22 09:32:52;;;;;;;19.33;3.38;;;9.60;99.90;;;;;;5044157;28;20113;-72
2024/01/22 09:35:18;;;;;;;9.55;2.10;;;9.60;99.90;;;;;;5036758;28;20380;-73
2024/01/22 09:37:43;;;;;;;3.95;1.67;;;9.60;99.90;;;;;;5045247;28;20104;-72
2024/01/22 09:40:13;;;;;;;22.95;3.38;;;9.60;99.90;;;;;;5037942;28;20051;-74
2024/01/22 09:42:40;;;;;;;26.52;2.70;;;9.60;99.90;;;;;;5052999;28;21506;-70
2024/01/22 09:45:09;;;;;;;14.77;2.65;;;9.60;99.90;;;;;;5037753;28;20032;-72
2024/01/22 09:47:37;;;;;;;30.85;2.95;;;9.60;99.90;;;;;;5045222;28;20057;-73
2024/01/22 09:50:03;;;;;;;12.98;2.80;;;9.70;99.90;;;;;;5037538;28;20047;-72
2024/01/22 09:52:33;;;;;;;19.70;2.35;;;9.60;99.90;;;;;;5046796;28;20028;-72
2024/01/22 09:54:58;;;;;;;22.63;4.10;;;9.70;99.90;;;;;;5019204;28;20047;-72
2024/01/22 09:57:27;;;;;;;9.23;1.77;;;9.70;99.90;;;;;;5055542;28;20430;-72
2024/01/22 09:59:53;;;;;;;10.97;2.73;;;9.70;99.90;;;;;;5032070;28;20040;-72
2024/01/22 10:02:22;;;;;;;11.55;2.15;;;9.70;99.90;;;;;;5036228;28;20056;-73
2024/01/22 10:04:48;;;;;;;6.13;1.50;;;9.70;99.90;;;;;;5036748;28;20030;-72
2024/01/22 10:07:15;;;;;;;5.38;1.55;;;9.70;99.90;;;;;;5045364;28;20036;-70
2024/01/22 10:09:42;;;;;;;11.57;1.52;;;9.80;99.90;;;;;;5034517;28;20032;-72
2024/01/22 10:12:08;;;;;;;10.40;1.85;;;9.80;99.90;;;;;;5053575;28;20032;-74
2024/01/22 10:14:35;;;;;;;8.35;1.63;;;9.80;99.90;;;;;;5057990;28;20703;-75
2024/01/22 10:17:16;;;;;;;7.20;1.33;;;9.70;99.90;;;;;;5050480;28;20036;-74
2024/01/22 10:19:42;;;;;;;21.77;2.53;;;9.70;99.90;;;;;;5054331;28;20029;-72
2024/01/22 10:22:08;;;;;;;8.00;2.55;;;9.80;99.90;;;;;;5043928;28;20059;-72
2024/01/22 10:24:34;;;;;;;16.83;3.28;;;9.70;99.90;;;;;;5044917;28;20077;-71
2024/01/22 10:27:16;;;;;;;14.45;3.08;;;9.70;99.90;;;;;;5033129;28;20028;-73
2024/01/22 10:29:44;;;;;;;11.88;2.95;;;9.70;99.90;;;;;;5056828;28;20032;-71
2024/01/22 10:32:10;;;;;;;22.53;2.47;;;9.70;99.90;;;;;;5039591;28;20036;-72
2024/01/22 10:34:50;;;;;;;17.65;3.08;;;9.70;99.90;;;;;;5057650;28;20425;-72
2024/01/22 10:37:16;;;;;;;14.52;3.30;;;9.80;99.90;;;;;;5046890;28;20036;-74
2024/01/22 10:39:43;;;;;;;17.80;2.45;;;9.90;99.90;;;;;;5044762;28;20036;-71
2024/01/22 10:42:11;;;;;;;6.88;2.75;;;10.00;99.90;;;;;;5038688;28;20041;-72
2024/01/22 10:44:40;;;;;;;18.90;1.65;;;10.00;99.90;;;;;;5060065;28;20479;-71
2024/01/22 10:47:09;;;;;;;5.10;1.77;;;10.00;99.90;;;;;;5039860;28;20056;-72
2024/01/22 10:49:35;;;;;;;9.88;1.63;;;10.00;99.90;;;;;;5059764;28;21225;-74
2024/01/22 10:52:02;;;;;;;10.82;1.38;;;10.00;99.90;;;;;;5040826;28;20496;-71
2024/01/22 10:54:30;;;;;;;11.15;1.85;;;10.00;99.90;;;;;;5034765;28;20132;-71
2024/01/22 10:57:03;;;;;;;3.75;1.13;;;10.10;99.90;;;;;;5045007;28;20113;-72
2024/01/22 10:59:34;;;;;;;8.98;1.27;;;10.10;99.90;;;;;;5053762;28;20043;-73
2024/01/22 11:02:05;;;;;;;13.35;2.95;;;10.10;99.90;;;;;;5047266;28;20028;-71
2024/01/22 11:04:37;;;;;;;11.63;1.67;;;10.20;99.90;;;;;;5062217;28;20943;-72
2024/01/22 11:07:06;;;;;;;4.78;1.48;;;10.20;99.90;;;;;;5041453;28;20108;-71
2024/01/22 11:09:33;;;;;;;8.15;2.28;;;10.30;99.90;;;;;;5048945;28;20131;-71
2024/01/22 11:12:08;;;;;;;7.65;1.63;;;10.30;99.90;;;;;;5030237;28;20122;-71
2024/01/22 11:14:34;;;;;;;20.75;1.90;;;10.30;99.90;;;;;;5044119;28;20512;-69
2024/01/22 11:17:01;;;;;;;6.60;1.42;;;10.30;99.90;;;;;;5034434;28;20036;-71
2024/01/22 11:19:27;;;;;;;7.10;0.85;;;10.30;99.90;;;;;;5048518;28;20512;-69
2024/01/22 11:21:53;;;;;;;15.38;1.55;;;10.30;99.90;;;;;;5043515;28;20047;-69
2024/01/22 11:24:20;;;;;;;8.52;1.55;;;10.40;99.90;;;;;;5048725;28;20123;-71
2024/01/22 11:27:03;;;;;;;12.02;1.90;;;10.40;99.90;;;;;;5043480;28;20132;-70
2024/01/22 11:29:29;;;;;;;7.15;1.80;;;10.50;99.90;;;;;;5055472;28;20028;-71
2024/01/22 11:31:56;;;;;;;11.13;1.65;;;10.60;99.90;;;;;;5055781;28;20035;-70
2024/01/22 11:34:42;;;;;;;11.95;1.08;;;10.60;99.90;;;;;;5040488;28;20028;-72
2024/01/22 11:37:08;;;;;;;12.88;1.95;;;;;;;;;;5056932;28;20120;-72
2024/01/22 11:39:35;;;;;;;11.98;1.83;;;10.70;99.90;;;;;;5039441;28;20055;-73
2024/01/22 11:42:23;;;;;;;6.25;1.40;;;10.80;99.90;;;;;;5059141;28;20617;-73
2024/01/22 11:44:49;;;;;;;15.40;1.70;;;10.80;99.90;;;;;;5050310;28;20472;-71
2024/01/22 11:47:19;;;;;;;12.50;2.60;;;10.80;99.90;;;;;;5055114;28;20585;-73
2024/01/22 11:49:44;;;;;;;32.30;2.45;;;10.80;99.90;;;;;;5045478;28;20040;-72
2024/01/22 11:52:20;;;;;;;15.52;1.65;;;10.90;99.90;;;;;;5058274;28;20036;-72
2024/01/22 11:55:07;;;;;;;12.50;2.03;;;10.90;99.90;;;;;;5044131;28;20048;-72
2024/01/22 11:57:36;;;;;;;13.43;0.98;;;10.90;99.90;;;;;;5059979;28;20098;-71
2024/01/22 12:00:04;;;;;;;5.72;1.55;;;11.00;99.90;;;;;;5044509;28;20032;-73
2024/01/22 12:02:31;;;;;;;7.70;1.48;;;11.00;99.90;;;;;;5063602;28;20214;-71
2024/01/22 12:05:01;;;;;;;15.80;3.63;;;11.10;99.90;;;;;;5047168;28;20074;-76
2024/01/22 12:07:34;;;;;;;9.57;1.90;;;11.10;99.90;;;;;;5048146;28;20032;-72
2024/01/22 12:10:00;;;;;;;10.00;1.90;;;11.20;99.90;;;;;;5045918;28;20059;-72
2024/01/22 12:12:26;;;;;;;6.50;1.40;;;11.20;99.90;;;;;;5053938;28;20090;-72
2024/01/22 12:14:57;;;;;;;2.55;1.48;;;11.20;99.90;;;;;;5044095;28;20131;-73
2024/01/22 12:17:24;;;;;;;13.63;1.73;;;11.20;99.90;;;;;;5050030;28;20036;-72
2024/01/22 12:19:54;;;;;;;2.50;1.10;;;11.10;99.90;;;;;;5032174;28;20025;-71
2024/01/22 12:22:22;;;;;;;13.00;1.95;;;11.40;99.90;;;;;;5049303;28;20037;-74
2024/01/22 12:25:08;;;;;;;12.90;1.00;;;11.50;99.90;;;;;;5036380;28;20028;-73
2024/01/22 12:27:35;;;;;;;12.20;3.10;;;11.50;99.90;;;;;;5048034;28;20055;-72
2024/01/22 12:30:05;;;;;;;17.27;1.38;;;11.40;99.90;;;;;;5040085;28;20127;-72
2024/01/22 12:32:33;;;;;;;12.93;1.63;;;11.30;99.90;;;;;;5042982;28;20129;-72
2024/01/22 12:34:59;;;;;;;11.45;1.98;;;11.40;99.90;;;;;;5032737;28;20032;-71
2024/01/22 12:37:30;;;;;;;9.52;1.67;;;11.40;99.90;;;;;;5048446;28;20485;-73
2024/01/22 12:40:14;;;;;;;28.65;2.63;;;11.30;99.90;;;;;;5028289;28;20040;-70